Time;durP1;ratioP1;P1;durP2;ratioP2;P2;SDS_P1;SDS_P2;PMS_P1;PMS_P2;Temp;Humidity;BMP_temperature;BMP_pressure;BME280_temperature;BME280_humidity;BME280_pressure;Samples;Min_cycle;Max_cycle;Signal;HPM_P1;HPM_P2
2023/03/16 00:02:13;;;;;;;5.88;2.67;;;4.10;99.90;;;;;;5038517;28;20396;-65
2023/03/16 00:04:39;;;;;;;7.10;2.20;;;4.10;99.90;;;;;;5069028;28;20496;-66
2023/03/16 00:07:10;;;;;;;6.85;2.45;;;4.10;99.90;;;;;;5041947;28;20041;-66
2023/03/16 00:09:40;;;;;;;6.13;2.33;;;4.10;99.90;;;;;;5042598;28;20045;-65
2023/03/16 00:12:14;;;;;;;7.20;2.78;;;4.10;99.90;;;;;;5041965;28;20095;-65
2023/03/16 00:14:44;;;;;;;4.00;2.28;;;4.20;99.90;;;;;;5041698;28;20041;-65
2023/03/16 00:17:17;;;;;;;6.13;2.60;;;4.20;99.90;;;;;;5060723;28;20076;-65
2023/03/16 00:19:48;;;;;;;5.68;2.75;;;4.20;99.90;;;;;;5048455;28;20044;-66
2023/03/16 00:22:15;;;;;;;3.55;2.47;;;4.20;99.90;;;;;;5047856;28;20090;-66
2023/03/16 00:24:44;;;;;;;7.35;2.47;;;4.20;99.90;;;;;;5050830;28;20503;-65
2023/03/16 00:27:14;;;;;;;8.13;2.95;;;4.20;99.90;;;;;;5042378;28;20041;-65
2023/03/16 00:29:45;;;;;;;3.75;2.30;;;4.20;99.90;;;;;;5040343;28;20053;-65
2023/03/16 00:32:16;;;;;;;5.82;2.75;;;4.20;99.90;;;;;;5069281;28;20044;-66
2023/03/16 00:34:43;;;;;;;4.43;2.58;;;4.20;99.90;;;;;;5059285;28;20055;-65
2023/03/16 00:37:09;;;;;;;5.35;2.70;;;4.20;99.90;;;;;;5044897;28;20068;-65
2023/03/16 00:39:34;;;;;;;8.85;3.10;;;4.20;99.90;;;;;;5044710;28;20071;-66
2023/03/16 00:42:01;;;;;;;4.25;2.65;;;4.20;99.90;;;;;;5045645;28;20076;-66
2023/03/16 00:44:27;;;;;;;4.60;2.38;;;4.20;99.90;;;;;;5045064;28;20094;-65
2023/03/16 00:46:53;;;;;;;5.75;2.67;;;4.20;99.90;;;;;;5043296;28;20044;-65
2023/03/16 00:49:18;;;;;;;5.65;2.85;;;4.20;99.90;;;;;;5071299;28;20144;-65
2023/03/16 00:51:45;;;;;;;5.95;2.97;;;4.20;99.90;;;;;;5045394;28;20099;-65
2023/03/16 00:54:11;;;;;;;6.63;2.67;;;4.20;99.90;;;;;;5041691;28;20124;-64
2023/03/16 00:56:37;;;;;;;5.38;2.70;;;4.20;99.90;;;;;;5044782;28;20041;-65
2023/03/16 00:59:04;;;;;;;5.57;2.63;;;4.20;99.90;;;;;;5072422;28;20043;-65
2023/03/16 01:01:31;;;;;;;6.90;2.70;;;4.20;99.90;;;;;;5046743;28;20059;-65
2023/03/16 01:04:01;;;;;;;6.57;2.75;;;4.20;99.90;;;;;;5044691;28;20040;-65
2023/03/16 01:06:26;;;;;;;4.82;2.50;;;4.10;99.90;;;;;;5055380;28;20076;-66
2023/03/16 01:08:52;;;;;;;5.50;2.80;;;4.10;99.90;;;;;;5043970;28;20075;-65
2023/03/16 01:11:21;;;;;;;11.73;3.25;;;4.10;99.90;;;;;;5042858;28;20044;-65
2023/03/16 01:13:48;;;;;;;6.85;2.85;;;4.10;99.90;;;;;;5049811;28;20052;-65
2023/03/16 01:16:17;;;;;;;5.63;2.97;;;4.10;99.90;;;;;;5044884;28;20415;-65
2023/03/16 01:18:44;;;;;;;5.78;3.05;;;4.10;99.90;;;;;;5046169;28;20063;-65
2023/03/16 01:21:12;;;;;;;7.88;2.85;;;4.00;99.90;;;;;;5052799;28;20044;-65
2023/03/16 01:23:39;;;;;;;5.00;2.80;;;4.00;99.90;;;;;;5051745;28;20435;-66
2023/03/16 01:26:05;;;;;;;5.90;3.10;;;4.00;99.90;;;;;;5045002;28;20082;-66
2023/03/16 01:28:33;;;;;;;5.63;2.60;;;4.00;99.90;;;;;;5044884;28;20037;-65
2023/03/16 01:31:02;;;;;;;8.48;3.22;;;4.00;99.90;;;;;;5047796;28;20041;-65
2023/03/16 01:33:28;;;;;;;5.50;3.00;;;3.90;99.90;;;;;;5039483;28;20042;-65
2023/03/16 01:36:00;;;;;;;6.80;3.13;;;4.00;99.90;;;;;;5049928;28;20366;-65
2023/03/16 01:38:26;;;;;;;6.53;3.00;;;3.90;99.90;;;;;;5070395;28;20059;-65
2023/03/16 01:40:53;;;;;;;7.05;3.55;;;3.90;99.90;;;;;;5043237;28;20048;-66
2023/03/16 01:43:21;;;;;;;5.40;3.00;;;3.90;99.90;;;;;;5048088;28;20041;-66
2023/03/16 01:46:05;;;;;;;9.13;3.28;;;3.90;99.90;;;;;;5051163;28;20048;-65
2023/03/16 01:49:04;;;;;;;5.18;3.00;;;3.90;99.90;;;;;;5066061;28;20045;-66
2023/03/16 01:52:11;;;;;;;5.03;2.92;;;3.90;99.90;;;;;;5041903;28;20084;-65
2023/03/16 01:54:47;;;;;;;7.50;3.47;;;3.90;99.90;;;;;;5045359;28;20864;-65
2023/03/16 01:57:17;;;;;;;6.90;3.00;;;4.00;99.90;;;;;;5040932;28;20094;-65
2023/03/16 02:00:06;;;;;;;7.20;3.20;;;4.00;99.90;;;;;;5043027;28;20052;-66
2023/03/16 02:02:33;;;;;;;8.30;3.30;;;4.00;99.90;;;;;;5040404;28;20072;-65
2023/03/16 02:05:12;;;;;;;6.30;3.00;;;4.00;99.90;;;;;;5043258;28;20448;-65
2023/03/16 02:07:49;;;;;;;8.38;3.30;;;4.00;99.90;;;;;;5027218;28;20083;-66
2023/03/16 02:10:18;;;;;;;6.93;3.17;;;4.00;99.90;;;;;;5042912;28;20048;-66
2023/03/16 02:12:44;;;;;;;5.85;3.30;;;4.00;99.90;;;;;;5044815;28;20186;-65
2023/03/16 02:15:12;;;;;;;8.05;3.80;;;4.00;99.90;;;;;;5043913;28;20036;-65
2023/03/16 02:17:41;;;;;;;6.40;3.30;;;4.00;99.90;;;;;;5042148;28;20481;-65
2023/03/16 02:20:44;;;;;;;6.75;3.17;;;4.10;99.90;;;;;;5026960;28;20052;-65
2023/03/16 02:23:17;;;;;;;7.38;3.63;;;4.10;99.90;;;;;;5041873;28;20655;-65
2023/03/16 02:26:01;;;;;;;7.05;3.30;;;4.10;99.90;;;;;;5041931;28;20058;-65
2023/03/16 02:28:47;;;;;;;8.30;3.13;;;4.10;99.90;;;;;;5049075;28;20076;-65
2023/03/16 02:31:14;;;;;;;8.32;3.53;;;4.10;99.90;;;;;;5049428;28;20057;-65
2023/03/16 02:33:40;;;;;;;6.75;3.50;;;4.20;99.90;;;;;;5077979;28;20393;-66
2023/03/16 02:36:06;;;;;;;8.00;3.60;;;4.20;99.90;;;;;;5051894;28;20052;-65
2023/03/16 02:38:32;;;;;;;7.68;3.50;;;4.20;99.90;;;;;;5049573;28;20151;-66
2023/03/16 02:41:11;;;;;;;7.70;3.80;;;4.20;99.90;;;;;;5053083;28;20120;-65
2023/03/16 02:43:40;;;;;;;7.50;3.70;;;4.20;99.90;;;;;;5052157;28;20044;-65
2023/03/16 02:46:07;;;;;;;10.98;4.05;;;4.20;99.90;;;;;;5073806;28;20049;-66
2023/03/16 02:48:48;;;;;;;7.70;3.40;;;4.20;99.90;;;;;;5042382;28;20060;-65
2023/03/16 02:51:14;;;;;;;8.27;3.97;;;4.20;99.90;;;;;;5059480;28;20508;-65
2023/03/16 02:53:39;;;;;;;5.38;3.30;;;4.20;99.90;;;;;;5049185;28;20037;-64
2023/03/16 02:56:06;;;;;;;6.43;3.78;;;4.20;99.90;;;;;;5039553;28;20072;-65
2023/03/16 02:58:32;;;;;;;9.00;4.07;;;4.20;99.90;;;;;;5041023;28;20029;-65
2023/03/16 03:00:58;;;;;;;7.13;3.72;;;4.20;99.90;;;;;;5042629;28;20103;-65
2023/03/16 03:03:24;;;;;;;8.93;4.00;;;4.20;99.90;;;;;;5041587;28;20063;-65
2023/03/16 03:05:49;;;;;;;7.43;3.70;;;4.30;99.90;;;;;;5041658;28;20041;-65
2023/03/16 03:08:15;;;;;;;7.25;3.45;;;4.20;99.90;;;;;;5048614;28;20062;-65
2023/03/16 03:10:41;;;;;;;7.72;3.90;;;4.20;99.90;;;;;;5047814;28;20511;-65
2023/03/16 03:13:07;;;;;;;6.88;3.88;;;4.20;99.90;;;;;;5044865;28;20053;-66
2023/03/16 03:15:33;;;;;;;7.95;3.97;;;4.20;99.90;;;;;;5040397;28;21225;-65
2023/03/16 03:17:59;;;;;;;7.43;3.75;;;4.20;99.90;;;;;;5041797;28;20068;-66
2023/03/16 03:20:25;;;;;;;5.68;3.78;;;4.20;99.90;;;;;;5041057;28;20499;-65
2023/03/16 03:22:54;;;;;;;10.80;4.07;;;4.30;99.90;;;;;;5041934;28;20097;-65
2023/03/16 03:25:21;;;;;;;8.00;3.80;;;4.30;99.90;;;;;;5044097;28;20656;-65
2023/03/16 03:27:48;;;;;;;9.68;4.35;;;4.30;99.90;;;;;;5045828;28;20159;-65
2023/03/16 03:30:17;;;;;;;6.45;4.20;;;4.30;99.90;;;;;;5049026;28;20037;-65
2023/03/16 03:32:43;;;;;;;7.05;4.13;;;4.20;99.90;;;;;;5043188;28;20064;-66
2023/03/16 03:35:11;;;;;;;10.10;4.70;;;4.30;99.90;;;;;;5050478;28;20087;-65
2023/03/16 03:37:39;;;;;;;7.00;3.60;;;4.20;99.90;;;;;;5047109;28;20503;-65
2023/03/16 03:40:06;;;;;;;9.02;4.05;;;4.20;99.90;;;;;;5049011;28;20045;-65
2023/03/16 03:42:31;;;;;;;7.07;4.32;;;4.30;99.90;;;;;;5047274;28;20071;-65
2023/03/16 03:44:57;;;;;;;9.70;3.92;;;4.20;99.90;;;;;;5044408;28;20041;-65
2023/03/16 03:47:22;;;;;;;6.45;3.90;;;4.20;99.90;;;;;;5048217;28;20048;-65
2023/03/16 03:49:48;;;;;;;8.10;4.20;;;4.20;99.90;;;;;;5048761;28;20120;-65
2023/03/16 03:52:14;;;;;;;8.10;4.38;;;4.20;99.90;;;;;;5045210;28;20037;-66
2023/03/16 03:54:39;;;;;;;8.07;4.07;;;4.20;99.90;;;;;;5042429;28;20110;-65
2023/03/16 03:57:05;;;;;;;8.18;4.00;;;4.20;99.90;;;;;;5048594;28;20045;-66
2023/03/16 03:59:31;;;;;;;9.27;4.03;;;4.20;99.90;;;;;;5038591;28;20053;-65
2023/03/16 04:01:57;;;;;;;9.52;4.10;;;4.20;99.90;;;;;;5051821;28;20041;-65
2023/03/16 04:04:22;;;;;;;5.10;3.58;;;4.20;99.90;;;;;;5039828;28;20507;-66
2023/03/16 04:06:50;;;;;;;9.52;4.55;;;4.20;99.90;;;;;;5049735;28;20039;-64
2023/03/16 04:09:15;;;;;;;6.13;4.13;;;4.20;99.90;;;;;;5046979;28;20047;-66
2023/03/16 04:11:41;;;;;;;7.97;4.13;;;4.20;99.90;;;;;;5053999;28;20386;-65
2023/03/16 04:14:07;;;;;;;8.35;4.28;;;4.20;99.90;;;;;;5050882;28;20434;-65
2023/03/16 04:16:32;;;;;;;8.95;4.00;;;4.20;99.90;;;;;;5051716;28;20408;-65
2023/03/16 04:18:58;;;;;;;6.40;3.67;;;4.20;99.90;;;;;;5035141;28;20044;-66
2023/03/16 04:21:24;;;;;;;7.15;3.50;;;4.20;99.90;;;;;;5044612;28;20507;-65
2023/03/16 04:23:53;;;;;;;9.10;3.50;;;4.20;99.90;;;;;;5044376;28;20431;-65
2023/03/16 04:26:20;;;;;;;5.53;3.70;;;4.20;99.90;;;;;;5045765;28;20044;-65
2023/03/16 04:28:46;;;;;;;6.60;3.55;;;4.20;99.90;;;;;;5043011;28;20079;-65
2023/03/16 04:31:12;;;;;;;9.93;3.85;;;4.20;99.90;;;;;;5044973;28;20044;-66
2023/03/16 04:33:39;;;;;;;11.50;4.25;;;4.20;99.90;;;;;;5046720;28;20084;-66
2023/03/16 04:36:06;;;;;;;6.22;3.70;;;4.20;99.90;;;;;;5046083;28;20136;-65
2023/03/16 04:38:32;;;;;;;6.80;3.40;;;4.20;99.90;;;;;;5047403;28;20033;-65
2023/03/16 04:40:59;;;;;;;10.15;4.13;;;4.20;99.90;;;;;;5052454;28;20132;-66
2023/03/16 04:43:25;;;;;;;7.00;3.58;;;4.20;99.90;;;;;;5052452;28;20108;-67
2023/03/16 04:45:51;;;;;;;5.88;3.30;;;4.20;99.90;;;;;;5052329;28;20139;-65
2023/03/16 04:48:17;;;;;;;7.38;3.88;;;4.20;99.90;;;;;;5051992;28;20087;-65
2023/03/16 04:50:42;;;;;;;10.13;3.90;;;4.20;99.90;;;;;;5052084;28;20045;-65
2023/03/16 04:53:08;;;;;;;8.02;4.43;;;4.20;99.90;;;;;;5044205;28;20040;-65
2023/03/16 04:55:34;;;;;;;10.02;3.83;;;4.20;99.90;;;;;;5072844;28;20045;-65
2023/03/16 04:58:00;;;;;;;9.27;4.15;;;4.20;99.90;;;;;;5045538;28;20051;-65
2023/03/16 05:00:27;;;;;;;6.32;3.72;;;4.20;99.90;;;;;;5045488;28;20133;-65
2023/03/16 05:02:53;;;;;;;7.20;3.80;;;4.20;99.90;;;;;;5074005;28;20043;-65
2023/03/16 05:05:20;;;;;;;10.15;4.00;;;4.20;99.90;;;;;;5046010;28;20045;-65
2023/03/16 05:07:46;;;;;;;9.98;3.70;;;4.20;99.90;;;;;;5048019;28;20090;-66
2023/03/16 05:10:15;;;;;;;7.53;4.00;;;4.20;99.90;;;;;;5073351;28;20085;-66
2023/03/16 05:12:40;;;;;;;7.68;3.70;;;4.30;99.90;;;;;;5056316;28;20055;-66
2023/03/16 05:15:07;;;;;;;7.50;4.10;;;4.20;99.90;;;;;;5044928;28;20541;-65
2023/03/16 05:17:33;;;;;;;5.75;3.47;;;4.30;99.90;;;;;;5042458;28;20052;-65
2023/03/16 05:19:59;;;;;;;10.35;4.00;;;4.30;99.90;;;;;;5050292;28;20121;-66
2023/03/16 05:22:25;;;;;;;8.93;4.25;;;4.30;99.90;;;;;;5047522;28;20056;-65
2023/03/16 05:24:51;;;;;;;6.07;4.07;;;4.30;99.90;;;;;;5041751;28;20068;-66
2023/03/16 05:27:16;;;;;;;9.05;3.92;;;4.30;99.90;;;;;;5074386;28;20578;-65
2023/03/16 05:29:45;;;;;;;8.30;4.05;;;4.30;99.90;;;;;;5045650;28;20046;-66
2023/03/16 05:32:12;;;;;;;6.93;4.00;;;4.30;99.90;;;;;;5045127;28;20033;-65
2023/03/16 05:34:38;;;;;;;7.78;4.32;;;4.30;99.90;;;;;;5046291;28;20043;-65
2023/03/16 05:37:03;;;;;;;5.53;3.80;;;4.30;99.90;;;;;;5040419;28;20045;-66
2023/03/16 05:39:29;;;;;;;7.25;3.70;;;4.30;99.90;;;;;;5048748;28;20435;-66
2023/03/16 05:41:58;;;;;;;5.78;3.88;;;4.30;99.90;;;;;;5051407;28;20495;-66
2023/03/16 05:44:24;;;;;;;7.15;4.13;;;4.30;99.90;;;;;;5050069;28;20373;-65
2023/03/16 05:46:50;;;;;;;7.28;4.40;;;4.30;99.90;;;;;;5047761;28;20128;-66
2023/03/16 05:49:16;;;;;;;8.15;4.40;;;4.30;99.90;;;;;;5050902;28;20075;-65
2023/03/16 05:51:41;;;;;;;9.02;4.25;;;4.20;99.90;;;;;;5042845;28;20542;-65
2023/03/16 05:54:07;;;;;;;9.95;4.65;;;4.30;99.90;;;;;;5034496;28;20639;-65
2023/03/16 05:56:33;;;;;;;7.95;4.53;;;4.30;99.90;;;;;;5033286;28;20065;-66
2023/03/16 05:58:59;;;;;;;6.40;4.10;;;4.30;99.90;;;;;;5037614;28;20087;-65
2023/03/16 06:01:25;;;;;;;12.13;4.78;;;4.30;99.90;;;;;;5053130;28;20180;-66
2023/03/16 06:03:51;;;;;;;5.72;3.97;;;4.30;99.90;;;;;;5041086;28;20094;-66
2023/03/16 06:06:18;;;;;;;8.93;4.28;;;4.30;99.90;;;;;;5032124;28;20495;-65
2023/03/16 06:08:44;;;;;;;9.13;4.45;;;4.30;99.90;;;;;;5048613;28;20037;-64
2023/03/16 06:11:10;;;;;;;10.10;4.10;;;4.30;99.90;;;;;;5050823;28;20090;-65
2023/03/16 06:13:36;;;;;;;6.80;4.38;;;4.30;99.90;;;;;;5048686;28;20479;-65
2023/03/16 06:16:03;;;;;;;7.20;4.20;;;4.30;99.90;;;;;;5048149;28;20095;-65
2023/03/16 06:18:28;;;;;;;7.22;4.15;;;4.30;99.90;;;;;;5048548;28;20122;-65
2023/03/16 06:20:54;;;;;;;7.18;3.95;;;4.30;99.90;;;;;;5049573;28;20037;-65
2023/03/16 06:23:20;;;;;;;9.15;4.28;;;4.30;99.90;;;;;;5048291;28;20037;-65
2023/03/16 06:25:46;;;;;;;7.03;3.72;;;4.30;99.90;;;;;;5051181;28;20041;-65
2023/03/16 06:28:12;;;;;;;7.10;4.38;;;4.30;99.90;;;;;;5050467;28;20106;-65
2023/03/16 06:30:39;;;;;;;6.28;3.88;;;4.30;99.90;;;;;;5046427;28;20057;-65
2023/03/16 06:33:05;;;;;;;6.32;4.00;;;4.40;99.90;;;;;;5050257;28;20064;-65
2023/03/16 06:35:31;;;;;;;6.82;3.70;;;4.40;99.90;;;;;;5046836;28;20071;-66
2023/03/16 06:37:56;;;;;;;9.45;3.95;;;4.40;99.90;;;;;;5051685;28;20041;-65
2023/03/16 06:40:22;;;;;;;6.95;3.80;;;4.40;99.90;;;;;;5045831;28;20076;-66
2023/03/16 06:42:48;;;;;;;7.10;4.00;;;4.50;99.90;;;;;;5049086;28;20116;-65
2023/03/16 06:45:15;;;;;;;10.45;4.03;;;4.50;99.90;;;;;;5049005;28;20051;-65
2023/03/16 06:47:42;;;;;;;8.10;4.13;;;4.50;99.90;;;;;;5049810;28;20125;-65
2023/03/16 06:50:09;;;;;;;5.90;3.80;;;4.60;99.90;;;;;;5032815;28;20053;-65
2023/03/16 06:52:34;;;;;;;6.30;4.00;;;4.60;99.90;;;;;;5050806;28;20037;-66
2023/03/16 06:55:00;;;;;;;7.03;4.40;;;4.60;99.90;;;;;;5031841;28;20128;-65
2023/03/16 06:57:26;;;;;;;5.50;3.63;;;4.60;99.90;;;;;;5049810;28;20040;-65
2023/03/16 06:59:52;;;;;;;6.38;3.92;;;4.60;99.90;;;;;;5080935;28;20040;-65
2023/03/16 07:02:18;;;;;;;5.70;3.53;;;4.60;99.90;;;;;;5044539;28;20132;-66
2023/03/16 07:04:45;;;;;;;7.45;4.32;;;4.60;99.90;;;;;;5049282;28;20072;-66
2023/03/16 07:07:11;;;;;;;5.20;3.53;;;4.70;99.90;;;;;;5049793;28;20102;-65
2023/03/16 07:09:38;;;;;;;5.63;3.47;;;4.60;99.90;;;;;;5049235;28;20049;-66
2023/03/16 07:12:04;;;;;;;7.10;4.00;;;4.70;99.90;;;;;;5048985;28;20079;-65
2023/03/16 07:14:30;;;;;;;5.43;3.63;;;4.70;99.90;;;;;;5044765;28;20044;-66
2023/03/16 07:16:56;;;;;;;6.63;3.95;;;4.70;99.90;;;;;;5044543;28;20071;-66
2023/03/16 07:19:21;;;;;;;6.88;3.72;;;4.80;99.90;;;;;;5047870;28;20040;-66
2023/03/16 07:21:48;;;;;;;6.43;3.75;;;4.80;99.90;;;;;;5048765;28;20041;-65
2023/03/16 07:24:14;;;;;;;6.53;3.65;;;4.80;99.90;;;;;;5049082;28;20036;-66
2023/03/16 07:26:40;;;;;;;4.97;3.70;;;4.80;99.90;;;;;;5049844;28;20077;-66
2023/03/16 07:29:06;;;;;;;6.20;3.90;;;4.80;99.90;;;;;;5049661;28;20083;-65
2023/03/16 07:31:33;;;;;;;5.65;3.78;;;4.90;99.90;;;;;;5049382;28;20041;-65
2023/03/16 07:33:59;;;;;;;5.65;3.35;;;4.90;99.90;;;;;;5033049;28;20056;-66
2023/03/16 07:36:25;;;;;;;5.53;3.17;;;4.90;99.90;;;;;;5049205;28;20064;-65
2023/03/16 07:38:51;;;;;;;9.57;4.35;;;4.90;99.90;;;;;;5049572;28;20087;-66
2023/03/16 07:41:17;;;;;;;4.50;3.22;;;4.90;99.90;;;;;;5049181;28;20052;-66
2023/03/16 07:43:45;;;;;;;7.47;3.78;;;5.00;99.90;;;;;;5049476;28;20108;-65
2023/03/16 07:46:14;;;;;;;7.47;3.60;;;5.00;99.90;;;;;;5048645;28;20041;-66
2023/03/16 07:48:41;;;;;;;6.72;3.97;;;5.00;99.90;;;;;;5049443;28;20037;-66
2023/03/16 07:51:08;;;;;;;9.25;4.15;;;5.00;99.90;;;;;;5049259;28;20399;-66
2023/03/16 07:53:34;;;;;;;7.00;3.70;;;5.00;99.90;;;;;;5049100;28;20045;-65
2023/03/16 07:56:00;;;;;;;6.63;3.50;;;5.00;99.90;;;;;;5041577;28;20037;-65
2023/03/16 07:58:26;;;;;;;6.50;3.88;;;5.00;99.90;;;;;;5048822;28;20102;-66
2023/03/16 08:00:58;;;;;;;5.63;3.90;;;5.00;99.90;;;;;;5048780;28;20049;-65
2023/03/16 08:03:25;;;;;;;7.82;3.33;;;5.00;99.90;;;;;;5032253;28;20048;-65
2023/03/16 08:05:52;;;;;;;6.80;3.80;;;5.00;99.90;;;;;;5048757;28;20045;-65
2023/03/16 08:08:18;;;;;;;7.00;3.80;;;5.00;99.90;;;;;;5048873;28;20090;-65
2023/03/16 08:10:46;;;;;;;5.45;3.40;;;5.00;99.90;;;;;;5032157;28;20045;-66
2023/03/16 08:13:12;;;;;;;9.10;4.05;;;5.00;99.90;;;;;;5048782;28;20033;-65
2023/03/16 08:15:38;;;;;;;6.30;4.03;;;5.00;99.90;;;;;;5048706;28;20442;-65
2023/03/16 08:18:06;;;;;;;7.40;4.35;;;5.10;99.90;;;;;;5032089;28;20133;-66
2023/03/16 08:20:32;;;;;;;5.45;3.80;;;5.10;99.90;;;;;;5048671;28;20132;-65
2023/03/16 08:22:57;;;;;;;7.03;4.00;;;5.10;99.90;;;;;;5048879;28;20094;-65
2023/03/16 08:25:23;;;;;;;5.53;3.97;;;5.00;99.90;;;;;;5050197;28;20041;-65
2023/03/16 08:27:49;;;;;;;7.95;4.07;;;5.10;99.90;;;;;;5031786;28;20084;-65
2023/03/16 08:30:16;;;;;;;5.65;3.83;;;5.10;99.90;;;;;;5048688;28;20529;-65
2023/03/16 08:32:41;;;;;;;7.93;3.80;;;5.10;99.90;;;;;;5048587;28;20055;-65
2023/03/16 08:35:09;;;;;;;7.63;3.80;;;5.10;99.90;;;;;;5048920;28;20044;-66
2023/03/16 08:37:35;;;;;;;5.15;3.92;;;5.10;99.90;;;;;;5032088;28;20057;-65
2023/03/16 08:40:02;;;;;;;5.20;3.88;;;5.10;99.90;;;;;;5048424;28;20044;-65
2023/03/16 08:42:28;;;;;;;7.72;4.03;;;5.10;99.90;;;;;;5048434;28;20056;-65
2023/03/16 08:44:54;;;;;;;7.93;3.78;;;5.20;99.90;;;;;;5048170;28;20033;-66
2023/03/16 08:47:23;;;;;;;7.03;4.07;;;5.20;99.90;;;;;;5048987;28;20447;-66
2023/03/16 08:49:49;;;;;;;5.90;3.80;;;5.10;99.90;;;;;;5049610;28;20037;-66
2023/03/16 08:52:15;;;;;;;8.25;3.47;;;5.10;99.90;;;;;;5032180;28;20108;-66
2023/03/16 08:54:42;;;;;;;6.95;4.05;;;5.20;99.90;;;;;;5031889;28;20087;-65
2023/03/16 08:57:09;;;;;;;6.13;3.88;;;5.20;99.90;;;;;;5048450;28;20043;-66
2023/03/16 08:59:35;;;;;;;5.38;3.63;;;5.20;99.90;;;;;;5035771;28;20072;-66
2023/03/16 09:02:03;;;;;;;8.65;4.07;;;5.20;99.90;;;;;;5052024;28;20037;-65
2023/03/16 09:04:29;;;;;;;7.05;3.70;;;5.20;99.90;;;;;;5053495;28;20041;-66
2023/03/16 09:06:54;;;;;;;7.95;4.05;;;5.30;99.90;;;;;;5051822;28;20044;-66
2023/03/16 09:09:20;;;;;;;7.15;3.67;;;5.30;99.90;;;;;;5051705;28;20047;-66
2023/03/16 09:11:48;;;;;;;10.98;4.13;;;5.30;99.90;;;;;;5051956;28;20113;-66
2023/03/16 09:14:14;;;;;;;6.88;4.68;;;5.30;99.90;;;;;;5052020;28;20145;-66
2023/03/16 09:16:40;;;;;;;7.35;3.70;;;5.30;99.90;;;;;;5051945;28;20507;-66
2023/03/16 09:19:06;;;;;;;5.68;3.75;;;5.40;99.90;;;;;;5051607;28;20057;-66
2023/03/16 09:21:33;;;;;;;6.90;3.80;;;5.40;99.90;;;;;;5051728;28;20044;-65
2023/03/16 09:23:59;;;;;;;6.35;3.50;;;5.40;99.90;;;;;;5034781;28;20044;-66
2023/03/16 09:26:27;;;;;;;7.32;3.80;;;5.40;99.90;;;;;;5051689;28;20095;-65
2023/03/16 09:28:53;;;;;;;6.80;3.63;;;5.50;99.90;;;;;;5051633;28;20056;-66
2023/03/16 09:31:19;;;;;;;4.15;3.70;;;5.50;99.90;;;;;;5051419;28;20037;-65
2023/03/16 09:33:46;;;;;;;7.53;4.40;;;5.50;99.90;;;;;;5051598;28;20106;-65
2023/03/16 09:36:12;;;;;;;6.57;3.72;;;5.50;99.90;;;;;;5051357;28;20040;-65
2023/03/16 09:38:39;;;;;;;6.82;3.90;;;5.50;99.90;;;;;;5051310;28;20051;-65
2023/03/16 09:41:24;;;;;;;6.70;4.30;;;5.50;99.90;;;;;;5050865;28;20056;-65
2023/03/16 09:44:04;;;;;;;7.13;3.83;;;5.50;99.90;;;;;;5051273;28;20052;-66
2023/03/16 09:46:37;;;;;;;8.05;5.28;;;5.50;99.90;;;;;;5051310;28;20045;-65
2023/03/16 09:49:03;;;;;;;7.50;3.60;;;5.50;99.90;;;;;;5050821;28;20064;-64
2023/03/16 09:51:47;;;;;;;6.72;3.85;;;5.50;99.90;;;;;;5045382;28;20037;-66
2023/03/16 09:54:31;;;;;;;5.90;4.05;;;5.50;99.90;;;;;;5050940;28;20040;-65
2023/03/16 09:56:59;;;;;;;6.07;3.90;;;5.50;99.90;;;;;;5052325;28;20049;-66
2023/03/16 09:59:26;;;;;;;7.20;4.32;;;5.50;99.90;;;;;;5051168;28;20080;-65
2023/03/16 10:01:56;;;;;;;7.82;4.70;;;5.50;99.90;;;;;;5034697;28;20045;-66
2023/03/16 10:04:39;;;;;;;6.10;4.18;;;5.50;99.90;;;;;;5051173;28;20086;-67
2023/03/16 10:07:14;;;;;;;7.43;4.00;;;5.60;99.90;;;;;;5050971;28;20044;-66
2023/03/16 10:10:14;;;;;;;8.30;4.05;;;5.60;99.90;;;;;;5033373;28;20041;-65
2023/03/16 10:12:45;;;;;;;7.07;3.80;;;5.60;99.90;;;;;;5051198;28;20036;-65
2023/03/16 10:15:15;;;;;;;7.63;3.95;;;5.70;99.90;;;;;;5050274;28;20040;-65
2023/03/16 10:18:13;;;;;;;9.02;4.22;;;5.70;99.90;;;;;;5050649;28;20071;-65
2023/03/16 10:20:40;;;;;;;8.20;4.03;;;5.70;99.90;;;;;;5050725;28;20055;-65
2023/03/16 10:23:35;;;;;;;7.90;4.20;;;5.80;99.90;;;;;;5050196;28;20047;-65
2023/03/16 10:26:11;;;;;;;9.38;4.95;;;5.90;99.90;;;;;;5032751;28;20115;-66
2023/03/16 10:28:38;;;;;;;7.03;4.25;;;6.00;99.90;;;;;;5066148;28;20048;-66
2023/03/16 10:31:04;;;;;;;7.35;4.10;;;6.00;99.90;;;;;;5032457;28;20061;-66
2023/03/16 10:33:35;;;;;;;7.72;4.40;;;6.10;99.90;;;;;;5065843;28;20124;-65
2023/03/16 10:36:18;;;;;;;6.00;3.95;;;6.10;99.90;;;;;;5065703;28;20056;-66
2023/03/16 10:38:54;;;;;;;6.55;4.05;;;6.20;99.90;;;;;;5032475;28;20091;-65
2023/03/16 10:41:36;;;;;;;6.93;4.40;;;6.20;99.90;;;;;;5065517;28;21043;-66
2023/03/16 10:44:22;;;;;;;6.35;3.97;;;6.20;99.90;;;;;;5032333;28;20051;-66
2023/03/16 10:47:00;;;;;;;9.00;4.70;;;6.20;99.90;;;;;;5016092;28;20044;-66
2023/03/16 10:49:40;;;;;;;6.75;4.00;;;6.30;99.90;;;;;;5015364;28;20052;-66
2023/03/16 10:52:22;;;;;;;8.27;4.20;;;6.30;99.90;;;;;;5032463;28;20051;-66
2023/03/16 10:54:59;;;;;;;6.18;3.95;;;6.30;99.90;;;;;;5016199;28;20044;-66
2023/03/16 10:57:32;;;;;;;6.10;4.10;;;6.30;99.90;;;;;;5031896;28;20106;-66
2023/03/16 11:00:08;;;;;;;8.25;4.43;;;6.40;99.90;;;;;;5065617;28;20053;-66
2023/03/16 11:02:34;;;;;;;7.32;4.05;;;6.40;99.90;;;;;;5040643;28;20053;-66
2023/03/16 11:05:17;;;;;;;8.13;4.32;;;6.40;99.90;;;;;;5050087;28;20037;-67
2023/03/16 11:07:48;;;;;;;7.90;5.00;;;6.50;99.90;;;;;;5049897;28;20055;-66
2023/03/16 11:10:36;;;;;;;8.48;4.30;;;6.60;99.90;;;;;;5049343;28;20049;-66
2023/03/16 11:13:08;;;;;;;8.38;4.70;;;6.60;99.90;;;;;;5049601;28;20056;-65
2023/03/16 11:15:41;;;;;;;;;;;6.70;99.90;;;;;;5033245;28;20107;-65
2023/03/16 11:18:15;;;;;;;7.78;4.03;;;6.80;99.90;;;;;;5049396;28;19916;-66
2023/03/16 11:20:41;;;;;;;9.63;4.63;;;6.90;99.90;;;;;;5049217;28;20064;-67
2023/03/16 11:23:13;;;;;;;7.60;4.10;;;7.00;99.90;;;;;;5049540;28;20472;-66
2023/03/16 11:25:46;;;;;;;7.22;3.83;;;7.10;99.90;;;;;;5049583;28;20403;-67
2023/03/16 11:28:28;;;;;;;7.95;4.22;;;7.20;99.90;;;;;;5049542;28;20124;-65
2023/03/16 11:31:20;;;;;;;9.02;3.90;;;7.20;99.90;;;;;;5049588;28;20037;-66
2023/03/16 11:33:48;;;;;;;5.30;3.53;;;7.30;99.90;;;;;;5049154;28;20041;-65
2023/03/16 11:36:33;;;;;;;7.30;3.38;;;7.40;99.90;;;;;;5032681;28;20132;-65
2023/03/16 11:39:26;;;;;;;5.70;3.38;;;7.50;99.90;;;;;;5048795;28;20048;-66
2023/03/16 11:42:02;;;;;;;;;;;7.60;99.90;;;;;;5049934;28;20036;-66
2023/03/16 11:44:56;;;;;;;6.78;3.63;;;7.70;99.90;;;;;;5048873;28;19917;-66
2023/03/16 11:47:46;;;;;;;6.85;3.50;;;7.90;99.90;;;;;;5049095;28;20066;-65
2023/03/16 11:50:18;;;;;;;7.38;3.42;;;8.00;99.90;;;;;;5047470;28;20496;-66
2023/03/16 11:52:46;;;;;;;5.20;3.28;;;8.10;99.90;;;;;;5049185;28;20041;-67
2023/03/16 11:55:35;;;;;;;5.70;3.10;;;8.20;99.90;;;;;;5049055;28;20037;-66
2023/03/16 11:58:35;;;;;;;6.85;3.28;;;8.30;99.90;;;;;;5049629;28;20654;-66
2023/03/16 12:01:38;;;;;;;4.35;2.95;;;8.50;99.90;;;;;;5032373;28;20041;-66
2023/03/16 12:04:29;;;;;;;5.93;3.05;;;8.80;99.90;;;;;;5048891;28;20064;-67
2023/03/16 12:07:19;;;;;;;4.90;3.00;;;9.30;99.90;;;;;;5049213;28;20582;-66
2023/03/16 12:10:09;;;;;;;4.32;2.97;;;9.40;99.90;;;;;;5048875;28;20403;-65
2023/03/16 12:12:46;;;;;;;4.93;2.80;;;9.20;99.90;;;;;;5048542;28;20037;-65
2023/03/16 12:15:33;;;;;;;4.15;2.80;;;9.10;99.90;;;;;;5032416;28;20155;-66
2023/03/16 12:18:14;;;;;;;6.10;2.90;;;9.00;99.90;;;;;;5032222;28;20128;-65
2023/03/16 12:20:55;;;;;;;4.68;2.80;;;8.90;99.90;;;;;;5048723;28;20418;-66
2023/03/16 12:23:47;;;;;;;5.75;2.75;;;8.90;99.90;;;;;;5048762;28;20076;-65
2023/03/16 12:26:13;;;;;;;5.28;3.30;;;8.80;99.90;;;;;;5048922;28;20801;-66
2023/03/16 12:28:41;;;;;;;3.60;2.72;;;8.80;99.90;;;;;;5048262;28;20041;-66
2023/03/16 12:31:16;;;;;;;5.97;3.00;;;8.70;99.90;;;;;;5048742;28;20065;-66
2023/03/16 12:34:02;;;;;;;4.03;2.63;;;8.70;99.90;;;;;;5050581;28;20045;-66
2023/03/16 12:36:57;;;;;;;9.20;3.10;;;8.70;99.90;;;;;;5052591;28;20067;-65
2023/03/16 12:39:55;;;;;;;6.82;3.03;;;8.70;99.90;;;;;;5034724;28;20064;-66
2023/03/16 12:42:37;;;;;;;4.22;2.78;;;8.70;99.90;;;;;;4971430;28;20105;-67
2023/03/16 12:45:15;;;;;;;8.38;2.80;;;8.80;99.90;;;;;;4975835;28;20050;-65
2023/03/16 12:48:08;;;;;;;5.97;3.20;;;8.80;99.90;;;;;;4975654;28;20065;-67
2023/03/16 12:50:34;;;;;;;;;;;8.80;99.90;;;;;;4972106;28;20053;-65
2023/03/16 12:53:00;;;;;;;7.60;3.13;;;8.80;99.90;;;;;;4975722;28;20343;-66
2023/03/16 12:55:42;;;;;;;5.47;3.08;;;8.90;99.90;;;;;;4975885;28;20046;-66
2023/03/16 12:58:09;;;;;;;4.45;3.00;;;8.90;99.90;;;;;;4969201;28;20596;-67
2023/03/16 13:00:37;;;;;;;4.32;2.75;;;8.90;99.90;;;;;;4974961;28;20058;-65
2023/03/16 13:03:06;;;;;;;4.93;2.78;;;9.00;99.90;;;;;;4974844;28;20066;-66
2023/03/16 13:05:33;;;;;;;6.03;3.38;;;9.00;99.90;;;;;;4975455;28;20081;-66
2023/03/16 13:08:12;;;;;;;6.32;3.80;;;9.20;99.90;;;;;;4959145;28;20046;-66
2023/03/16 13:10:38;;;;;;;3.83;2.90;;;9.30;99.90;;;;;;4972369;28;20490;-66
2023/03/16 13:13:13;;;;;;;4.85;2.90;;;9.50;99.90;;;;;;4975100;28;20100;-65
2023/03/16 13:15:46;;;;;;;5.70;2.70;;;9.60;99.90;;;;;;4956164;28;20054;-66